createdAt,value
2022-10-19T00:01:15.916Z,414.23
2022-10-19T00:03:45.242Z,415.33
2022-10-19T00:06:15.891Z,439.67
2022-10-19T00:08:44.681Z,483.67
2022-10-19T00:11:13.465Z,466.77
2022-10-19T00:13:42.869Z,468.37
2022-10-19T00:16:12.771Z,487.73
2022-10-19T00:18:43.360Z,474.60
2022-10-19T00:21:13.224Z,465.57
2022-10-19T00:23:41.334Z,504.30
2022-10-19T00:26:09.969Z,508.23
2022-10-19T00:28:38.206Z,502.03
2022-10-19T00:31:09.702Z,509.30
2022-10-19T00:33:38.002Z,487.10
2022-10-19T00:36:07.150Z,504.17
2022-10-19T00:38:35.207Z,497.23
2022-10-19T00:41:04.142Z,498.77
2022-10-19T00:43:32.487Z,493.10
2022-10-19T00:46:00.616Z,499.57
2022-10-19T00:48:33.233Z,500.07
2022-10-19T00:51:01.384Z,484.53
2022-10-19T00:53:31.207Z,509.20
2022-10-19T00:56:00.628Z,466.43
2022-10-19T00:58:28.871Z,496.87
2022-10-19T01:00:56.947Z,468.33
2022-10-19T01:03:25.138Z,483.83
2022-10-19T01:05:54.872Z,481.33
2022-10-19T01:08:23.538Z,467.23
2022-10-19T01:10:57.049Z,523.77
2022-10-19T01:13:37.771Z,498.80
2022-10-19T01:16:11.600Z,504.50
2022-10-19T01:18:44.529Z,494.43
2022-10-19T01:21:21.069Z,490.13
2022-10-19T01:24:23.684Z,449.70
2022-10-19T01:27:25.473Z,420.60
2022-10-19T01:30:16.606Z,400.77
2022-10-19T01:33:09.700Z,442.47
2022-10-19T01:35:41.344Z,452.53
2022-10-19T01:38:20.795Z,456.67
2022-10-19T01:40:55.771Z,450.70
2022-10-19T01:43:33.201Z,454.87
2022-10-19T01:46:07.745Z,450.93
2022-10-19T01:48:37.093Z,439.47
2022-10-19T01:51:07.734Z,465.63
2022-10-19T01:53:39.790Z,491.17
2022-10-19T01:56:08.197Z,489.73
2022-10-19T01:58:38.566Z,493.77
2022-10-19T02:03:40.967Z,465.17
2022-10-19T02:06:10.394Z,449.80
2022-10-19T02:08:41.980Z,492.80
2022-10-19T02:11:10.354Z,460.73
2022-10-19T02:13:40.587Z,495.43
2022-10-19T02:16:15.171Z,470.97
2022-10-19T02:18:46.445Z,476.77
2022-10-19T02:21:14.784Z,452.80
2022-10-19T02:23:42.836Z,463.80
2022-10-19T02:26:11.151Z,529.30
2022-10-19T02:28:39.676Z,516.07
2022-10-19T02:31:07.796Z,472.03
2022-10-19T02:33:38.040Z,503.97
2022-10-19T02:36:06.816Z,494.40
2022-10-19T02:38:35.148Z,499.40
2022-10-19T02:41:06.503Z,525.97
2022-10-19T02:43:36.304Z,508.97
2022-10-19T02:46:08.071Z,497.83
2022-10-19T02:48:38.270Z,481.10
2022-10-19T02:51:06.667Z,500.63
2022-10-19T02:53:34.799Z,504.17
2022-10-19T02:56:02.906Z,503.50
2022-10-19T02:58:30.889Z,494.57
2022-10-19T03:00:58.917Z,538.23
2022-10-19T03:03:26.909Z,485.07
2022-10-19T03:05:56.526Z,473.17
2022-10-19T03:08:24.490Z,532.83
2022-10-19T03:10:52.498Z,487.90
2022-10-19T03:13:20.560Z,525.70
2022-10-19T03:15:48.809Z,499.80
2022-10-19T03:18:17.075Z,513.10
2022-10-19T03:20:45.533Z,498.33
2022-10-19T03:23:14.863Z,506.43
2022-10-19T03:25:42.952Z,506.63
2022-10-19T03:28:10.936Z,534.00
2022-10-19T03:30:38.962Z,539.13
2022-10-19T03:33:07.002Z,494.90
2022-10-19T03:35:35.017Z,507.73
2022-10-19T03:38:02.970Z,478.53
2022-10-19T03:40:32.422Z,476.67
2022-10-19T03:43:00.495Z,473.27
2022-10-19T03:45:28.496Z,477.37
2022-10-19T03:47:56.600Z,490.17
2022-10-19T03:50:24.732Z,484.87
2022-10-19T03:52:52.830Z,484.47
2022-10-19T03:55:20.887Z,464.00
2022-10-19T03:57:50.287Z,434.70
2022-10-19T04:00:18.476Z,442.83
2022-10-19T04:02:46.457Z,448.80
2022-10-19T04:05:14.639Z,451.00
2022-10-19T04:07:42.902Z,437.20
2022-10-19T04:10:11.188Z,450.57
2022-10-19T04:12:39.189Z,420.13
2022-10-19T04:15:09.979Z,465.27
2022-10-19T04:17:38.049Z,439.37
2022-10-19T04:20:07.333Z,447.63
2022-10-19T04:22:35.400Z,442.00
2022-10-19T04:25:03.392Z,474.70
2022-10-19T04:27:31.767Z,474.37
2022-10-19T04:29:59.958Z,445.83
2022-10-19T04:32:29.492Z,442.37
2022-10-19T04:34:57.569Z,425.20
2022-10-19T04:37:26.033Z,415.90
2022-10-19T04:39:54.309Z,415.13
2022-10-19T04:42:22.338Z,441.27
2022-10-19T04:44:50.321Z,410.27
2022-10-19T04:47:19.065Z,397.87
2022-10-19T04:49:48.447Z,432.43
2022-10-19T04:52:16.482Z,425.50
2022-10-19T04:54:44.701Z,404.87
2022-10-19T04:57:12.781Z,391.80
2022-10-19T04:59:40.985Z,409.73
2022-10-19T05:02:09.101Z,403.77
2022-10-19T05:04:38.303Z,392.30
2022-10-19T05:07:09.135Z,401.27
2022-10-19T05:09:40.328Z,416.93
2022-10-19T05:12:08.411Z,404.17
2022-10-19T05:14:39.060Z,405.97
2022-10-19T05:17:10.106Z,400.97
2022-10-19T05:19:38.096Z,391.07
2022-10-19T05:22:06.174Z,397.30
2022-10-19T05:24:35.524Z,363.50
2022-10-19T05:27:03.543Z,412.80
2022-10-19T05:29:33.810Z,431.57
2022-10-19T05:32:01.812Z,403.27
2022-10-19T05:34:29.860Z,395.53
2022-10-19T05:36:57.934Z,360.87
2022-10-19T05:39:26.045Z,377.77
2022-10-19T05:41:55.393Z,396.23
2022-10-19T05:44:24.591Z,385.83
2022-10-19T05:46:53.012Z,397.27
2022-10-19T05:49:22.906Z,412.37
2022-10-19T05:51:51.323Z,402.83
2022-10-19T05:54:21.809Z,396.27
2022-10-19T05:56:51.845Z,393.73
2022-10-19T05:59:22.284Z,405.77
2022-10-19T06:01:50.440Z,440.40
2022-10-19T06:04:18.438Z,432.87
2022-10-19T06:06:46.494Z,410.33
2022-10-19T06:09:14.679Z,418.07
2022-10-19T06:11:43.347Z,422.47
2022-10-19T06:14:14.128Z,415.53
2022-10-19T06:16:45.772Z,415.67
2022-10-19T06:19:13.835Z,425.67
2022-10-19T06:21:44.871Z,468.60
2022-10-19T06:24:14.233Z,425.57
2022-10-19T06:26:42.199Z,433.67
2022-10-19T06:29:29.050Z,406.80
2022-10-19T06:32:00.264Z,402.60
2022-10-19T06:34:28.330Z,413.67
2022-10-19T06:36:56.411Z,407.07
2022-10-19T06:39:24.382Z,440.53
2022-10-19T06:41:52.373Z,412.97
2022-10-19T06:44:20.535Z,435.77
2022-10-19T06:46:48.697Z,416.43
2022-10-19T06:49:18.213Z,405.93
2022-10-19T06:51:46.222Z,413.27
2022-10-19T06:54:14.223Z,442.57
2022-10-19T06:56:42.244Z,406.53
2022-10-19T06:59:13.018Z,453.67
2022-10-19T07:01:41.275Z,424.10
2022-10-19T07:04:09.706Z,447.80
2022-10-19T07:06:41.200Z,478.93
2022-10-19T07:09:09.274Z,456.47
2022-10-19T07:11:38.328Z,467.53
2022-10-19T07:14:11.726Z,466.90
2022-10-19T07:16:42.605Z,489.13
2022-10-19T07:19:11.719Z,465.83
2022-10-19T07:21:42.976Z,483.23
2022-10-19T07:24:11.310Z,484.80
2022-10-19T07:26:43.759Z,474.60
2022-10-19T07:29:12.066Z,439.73
2022-10-19T07:31:43.282Z,458.10
2022-10-19T07:34:29.020Z,471.03
2022-10-19T07:36:58.768Z,427.00
2022-10-19T07:39:27.443Z,424.37
2022-10-19T07:41:55.417Z,429.57
2022-10-19T07:44:23.441Z,408.60
2022-10-19T07:46:51.729Z,410.20
2022-10-19T07:49:20.667Z,418.43
2022-10-19T07:51:48.959Z,420.33
2022-10-19T07:54:18.284Z,418.43
2022-10-19T07:56:46.229Z,443.83
2022-10-19T07:59:16.241Z,448.30
2022-10-19T08:01:44.932Z,441.87
2022-10-19T08:04:55.593Z,441.57
2022-10-19T08:07:01.096Z,383.07
2022-10-19T08:12:18.411Z,379.63
2022-10-19T08:14:47.949Z,390.97
2022-10-19T08:17:17.697Z,411.70
2022-10-19T08:19:46.265Z,401.77
2022-10-19T08:22:14.307Z,411.97
2022-10-19T08:24:43.705Z,454.70
2022-10-19T08:27:11.766Z,436.97
2022-10-19T08:29:39.806Z,454.40
2022-10-19T08:32:07.772Z,493.43
2022-10-19T08:34:35.848Z,448.17
2022-10-19T08:37:10.471Z,471.10
2022-10-19T08:39:49.574Z,450.83
2022-10-19T08:42:19.856Z,481.50
2022-10-19T08:45:24.663Z,501.43
2022-10-19T08:48:00.420Z,529.50
2022-10-19T08:50:31.794Z,545.17
2022-10-19T08:53:03.774Z,564.87
2022-10-19T08:55:44.546Z,552.00
2022-10-19T08:58:22.403Z,542.97
2022-10-19T09:00:53.479Z,519.17
2022-10-19T09:03:37.907Z,520.33
2022-10-19T09:06:23.074Z,486.70
2022-10-19T09:08:52.485Z,532.60
2022-10-19T09:11:26.008Z,548.40
2022-10-19T09:14:05.695Z,578.90
2022-10-19T09:16:35.151Z,564.07
2022-10-19T09:19:03.894Z,588.03
2022-10-19T09:21:47.039Z,616.27
2022-10-19T09:24:28.446Z,625.53
2022-10-19T09:27:00.244Z,648.10
2022-10-19T09:29:36.593Z,652.30
2022-10-19T09:32:06.411Z,686.80
2022-10-19T09:34:36.764Z,675.90
2022-10-19T09:37:05.255Z,705.57
2022-10-19T09:39:33.542Z,692.77
2022-10-19T09:42:14.553Z,679.90
2022-10-19T09:44:42.640Z,713.63
2022-10-19T09:47:22.815Z,706.80
2022-10-19T09:49:50.992Z,685.83
2022-10-19T09:52:38.036Z,706.80
2022-10-19T09:55:07.385Z,702.67
2022-10-19T09:57:43.277Z,712.57
2022-10-19T10:00:19.736Z,700.70
2022-10-19T10:02:51.732Z,695.20
2022-10-19T10:05:20.864Z,692.33
2022-10-19T10:07:49.134Z,714.77
2022-10-19T10:10:25.528Z,720.27
2022-10-19T10:12:56.515Z,732.60
2022-10-19T10:15:27.240Z,702.30
2022-10-19T10:17:56.803Z,713.23
2022-10-19T10:20:29.451Z,709.00
2022-10-19T10:23:00.447Z,708.37
2022-10-19T10:25:31.028Z,711.40
2022-10-19T10:28:03.073Z,707.43
2022-10-19T10:30:34.850Z,711.47
2022-10-19T10:33:21.132Z,692.70
2022-10-19T10:35:53.725Z,719.77
2022-10-19T10:38:25.013Z,696.63
2022-10-19T10:40:54.471Z,692.37
2022-10-19T10:43:28.865Z,697.73
2022-10-19T10:46:02.072Z,706.77
2022-10-19T10:48:32.327Z,694.70
2022-10-19T10:51:02.019Z,708.83
2022-10-19T10:53:33.888Z,689.60
2022-10-19T10:56:02.490Z,728.73
2022-10-19T10:58:38.177Z,699.93
2022-10-19T11:01:09.413Z,706.93
2022-10-19T11:03:43.479Z,726.97
2022-10-19T11:06:12.766Z,750.87
2022-10-19T11:08:47.960Z,755.93
2022-10-19T11:11:18.365Z,768.40
2022-10-19T11:13:51.869Z,742.90
2022-10-19T11:16:21.065Z,752.37
2022-10-19T11:18:51.751Z,756.10
2022-10-19T11:21:27.559Z,749.63
2022-10-19T11:24:01.567Z,755.10
2022-10-19T11:26:48.824Z,743.30
2022-10-19T11:29:31.486Z,762.30
2022-10-19T11:31:59.650Z,749.53
2022-10-19T11:34:39.863Z,757.20
2022-10-19T11:37:16.943Z,748.27
2022-10-19T11:39:52.400Z,765.10
2022-10-19T11:42:26.175Z,759.10
2022-10-19T11:45:04.531Z,773.63
2022-10-19T11:47:51.031Z,758.03
2022-10-19T11:50:32.101Z,749.07
2022-10-19T11:53:05.858Z,739.20
2022-10-19T11:55:40.542Z,746.03
2022-10-19T11:58:18.952Z,756.10
2022-10-19T12:00:51.304Z,750.30
2022-10-19T12:03:45.656Z,784.63
2022-10-19T12:06:19.274Z,754.83
2022-10-19T12:09:02.469Z,765.80
2022-10-19T12:11:42.307Z,742.67
2022-10-19T12:14:14.229Z,769.33
2022-10-19T12:16:46.538Z,761.17
2022-10-19T12:19:19.915Z,759.60
2022-10-19T12:21:48.929Z,755.40
2022-10-19T12:24:19.363Z,802.00
2022-10-19T12:26:48.299Z,789.73
2022-10-19T12:29:20.437Z,790.03
2022-10-19T12:31:50.407Z,767.07
2022-10-19T12:34:27.637Z,766.83
2022-10-19T12:36:58.425Z,767.93
2022-10-19T12:39:31.490Z,760.63
2022-10-19T12:42:04.899Z,756.10
2022-10-19T12:44:56.230Z,774.93
2022-10-19T12:47:28.087Z,755.10
2022-10-19T12:49:56.280Z,731.13
2022-10-19T12:52:40.405Z,773.60
2022-10-19T12:55:13.682Z,766.80
2022-10-19T12:57:43.558Z,758.13
2022-10-19T13:00:21.236Z,757.77
2022-10-19T13:03:06.781Z,768.00
2022-10-19T13:05:35.971Z,776.40
2022-10-19T13:08:07.055Z,768.03
2022-10-19T13:10:37.456Z,769.73
2022-10-19T13:13:05.516Z,777.83
2022-10-19T13:15:58.102Z,757.70
2022-10-19T13:19:07.005Z,777.67
2022-10-19T13:21:47.766Z,759.87
2022-10-19T13:24:36.736Z,776.47
2022-10-19T13:27:39.520Z,766.50
2022-10-19T13:30:48.251Z,755.63
2022-10-19T13:33:48.636Z,757.93
2022-10-19T13:36:17.497Z,769.77
2022-10-19T13:38:48.901Z,793.17
2022-10-19T13:41:21.410Z,787.57
2022-10-19T13:43:57.433Z,772.63
2022-10-19T13:46:39.504Z,773.93
2022-10-19T13:49:38.779Z,783.77
2022-10-19T13:52:26.152Z,750.17
2022-10-19T13:55:22.688Z,782.97
2022-10-19T13:58:06.160Z,770.13
2022-10-19T14:00:39.270Z,778.80
2022-10-19T14:03:27.530Z,771.97
2022-10-19T14:06:28.620Z,764.77
2022-10-19T14:09:22.932Z,757.23
2022-10-19T14:11:53.631Z,767.83
2022-10-19T14:14:23.092Z,750.00
2022-10-19T14:16:56.158Z,772.33
2022-10-19T14:19:28.769Z,788.90
2022-10-19T14:21:58.007Z,781.20
2022-10-19T14:24:32.427Z,783.40
2022-10-19T14:27:07.518Z,793.10
2022-10-19T14:29:44.698Z,743.60
2022-10-19T14:32:13.150Z,756.10
2022-10-19T14:34:42.229Z,773.20
2022-10-19T14:37:14.941Z,754.33
2022-10-19T14:39:42.933Z,749.60
2022-10-19T14:42:12.306Z,755.13
2022-10-19T14:44:42.289Z,779.27
2022-10-19T14:47:24.190Z,772.40
2022-10-19T14:49:52.364Z,761.87
2022-10-19T14:52:25.904Z,757.87
2022-10-19T14:54:54.422Z,791.20
2022-10-19T14:57:26.753Z,772.87
2022-10-19T14:59:57.485Z,768.77
2022-10-19T15:02:27.579Z,786.77
2022-10-19T15:04:57.071Z,775.00
2022-10-19T15:07:27.930Z,778.83
2022-10-19T15:09:58.214Z,756.23
2022-10-19T15:12:31.334Z,775.30
2022-10-19T15:14:59.415Z,768.80
2022-10-19T15:17:28.837Z,781.77
2022-10-19T15:19:59.955Z,770.23
2022-10-19T15:22:39.650Z,761.13
2022-10-19T15:25:35.388Z,748.67
2022-10-19T15:28:36.079Z,758.47
2022-10-19T15:31:08.400Z,778.23
2022-10-19T15:33:39.927Z,746.53
2022-10-19T15:36:16.906Z,769.10
2022-10-19T15:38:45.991Z,781.53
2022-10-19T15:41:21.711Z,775.93
2022-10-19T15:43:52.525Z,775.17
2022-10-19T15:46:56.487Z,796.83
2022-10-19T15:49:53.537Z,772.30
2022-10-19T15:52:22.784Z,782.33
2022-10-19T15:54:51.016Z,777.93
2022-10-19T15:57:31.090Z,798.60
2022-10-19T16:00:02.315Z,797.63
2022-10-19T16:02:32.189Z,785.10
2022-10-19T16:05:00.232Z,809.20
2022-10-19T16:07:29.798Z,764.07
2022-10-19T16:09:58.746Z,770.23
2022-10-19T16:12:27.525Z,792.20
2022-10-19T16:14:55.649Z,786.10
2022-10-19T16:17:25.192Z,780.43
2022-10-19T16:19:53.499Z,773.87
2022-10-19T16:22:21.601Z,761.63
2022-10-19T16:24:49.712Z,774.27
2022-10-19T16:27:17.898Z,766.80
2022-10-19T16:29:46.064Z,773.30
2022-10-19T16:32:14.083Z,752.33
2022-10-19T16:34:43.587Z,762.57
2022-10-19T16:37:11.655Z,759.90
2022-10-19T16:39:39.754Z,768.87
2022-10-19T16:42:07.787Z,762.77
2022-10-19T16:44:36.003Z,775.67
2022-10-19T16:47:05.234Z,756.00
2022-10-19T16:49:33.541Z,771.43
2022-10-19T16:52:02.983Z,730.83
2022-10-19T16:54:32.687Z,754.90
2022-10-19T16:57:02.220Z,749.27
2022-10-19T16:59:31.766Z,776.97
2022-10-19T17:01:59.839Z,737.47
2022-10-19T17:04:27.864Z,747.50
2022-10-19T17:06:57.092Z,719.27
2022-10-19T17:09:42.754Z,752.97
2022-10-19T17:12:12.148Z,754.97
2022-10-19T17:14:41.826Z,730.80
2022-10-19T17:17:10.574Z,731.67
2022-10-19T17:19:38.997Z,742.93
2022-10-19T17:22:07.195Z,763.00
2022-10-19T17:24:39.254Z,733.07
2022-10-19T17:27:07.516Z,769.53
2022-10-19T17:29:35.992Z,763.07
2022-10-19T17:32:04.064Z,749.13
2022-10-19T17:34:32.476Z,749.20
2022-10-19T17:37:00.525Z,736.87
2022-10-19T17:39:30.022Z,749.40
2022-10-19T17:42:02.191Z,750.80
2022-10-19T17:44:31.590Z,741.83
2022-10-19T17:47:01.297Z,724.80
2022-10-19T17:49:30.467Z,737.23
2022-10-19T17:51:58.617Z,750.37
2022-10-19T17:54:27.092Z,743.63
2022-10-19T17:56:57.942Z,743.33
2022-10-19T17:59:34.922Z,740.60
2022-10-19T18:02:04.221Z,718.10
2022-10-19T18:04:32.225Z,708.70
2022-10-19T18:07:00.315Z,719.83
2022-10-19T18:09:28.324Z,719.03
2022-10-19T18:11:56.654Z,746.43
2022-10-19T18:14:24.851Z,701.13
2022-10-19T18:16:54.416Z,735.83
2022-10-19T18:19:22.562Z,712.97
2022-10-19T18:21:53.146Z,736.70
2022-10-19T18:24:21.484Z,724.60
2022-10-19T18:26:52.602Z,715.40
2022-10-19T18:29:22.994Z,713.60
2022-10-19T18:31:55.058Z,721.77
2022-10-19T18:34:27.119Z,722.07
2022-10-19T18:36:56.852Z,716.07
2022-10-19T18:39:29.213Z,730.73
2022-10-19T18:41:58.361Z,726.47
2022-10-19T18:44:28.660Z,724.73
2022-10-19T18:47:00.129Z,721.87
2022-10-19T18:49:29.825Z,737.33
2022-10-19T18:51:59.249Z,719.90
2022-10-19T18:54:29.107Z,741.73
2022-10-19T18:56:59.585Z,743.77
2022-10-19T19:01:59.069Z,718.83
2022-10-19T19:04:28.771Z,725.30
2022-10-19T19:06:57.087Z,742.33
2022-10-19T19:09:25.327Z,720.30
2022-10-19T19:11:57.848Z,729.83
2022-10-19T19:14:26.643Z,718.13
2022-10-19T19:16:54.786Z,702.07
2022-10-19T19:19:24.469Z,731.90
2022-10-19T19:21:58.175Z,704.87
2022-10-19T19:24:31.480Z,707.87
2022-10-19T19:27:00.187Z,695.73
2022-10-19T19:29:30.636Z,704.17
2022-10-19T19:31:58.817Z,686.07
2022-10-19T19:34:26.902Z,706.63
2022-10-19T19:36:54.988Z,683.43
2022-10-19T19:39:25.690Z,706.27
2022-10-19T19:41:53.785Z,690.97
2022-10-19T19:44:21.998Z,692.93
2022-10-19T19:46:50.166Z,708.70
2022-10-19T19:49:18.625Z,711.73
2022-10-19T19:51:46.966Z,702.17
2022-10-19T19:54:15.041Z,700.83
2022-10-19T19:56:44.503Z,697.53
2022-10-19T19:59:13.444Z,692.73
2022-10-19T20:01:45.737Z,690.40
2022-10-19T20:04:16.270Z,709.80
2022-10-19T20:06:44.665Z,702.43
2022-10-19T20:09:12.825Z,686.23
2022-10-19T20:11:42.751Z,676.37
2022-10-19T20:14:14.061Z,694.47
2022-10-19T20:16:42.454Z,701.93
2022-10-19T20:19:12.267Z,696.50
2022-10-19T20:21:40.772Z,704.40
2022-10-19T20:24:09.093Z,680.87
2022-10-19T20:26:39.986Z,689.20
2022-10-19T20:29:08.280Z,694.30
2022-10-19T20:31:40.443Z,707.80
2022-10-19T20:34:10.922Z,687.03
2022-10-19T20:36:39.984Z,682.70
2022-10-19T20:39:08.330Z,675.03
2022-10-19T20:41:37.016Z,690.33
2022-10-19T20:44:05.463Z,681.60
2022-10-19T20:46:33.698Z,679.47
2022-10-19T20:49:03.563Z,685.03
2022-10-19T20:51:33.329Z,652.27
2022-10-19T20:54:02.834Z,659.37
2022-10-19T20:56:33.057Z,652.23
2022-10-19T21:01:34.244Z,658.97
2022-10-19T21:04:06.729Z,667.53
2022-10-19T21:06:38.973Z,672.27
2022-10-19T21:09:07.903Z,666.33
2022-10-19T21:11:38.068Z,677.07
2022-10-19T21:14:07.957Z,656.47
2022-10-19T21:16:39.926Z,642.07
2022-10-19T21:19:12.550Z,659.33
2022-10-19T21:21:44.969Z,648.97
2022-10-19T21:24:15.368Z,650.33
2022-10-19T21:26:43.717Z,667.43
2022-10-19T21:29:13.350Z,673.27
2022-10-19T21:31:46.452Z,657.10
2022-10-19T21:34:20.036Z,644.17
2022-10-19T21:36:48.506Z,659.07
2022-10-19T21:39:16.927Z,652.80
2022-10-19T21:41:45.794Z,655.77
2022-10-19T21:44:15.665Z,650.03
2022-10-19T21:46:44.178Z,638.20
2022-10-19T21:49:13.130Z,659.00
2022-10-19T21:51:44.545Z,657.97
2022-10-19T21:54:15.092Z,644.60
2022-10-19T21:56:43.997Z,620.30
2022-10-19T21:59:13.081Z,625.23
2022-10-19T22:01:42.022Z,621.53
2022-10-19T22:04:12.645Z,634.80
2022-10-19T22:06:43.519Z,599.37
2022-10-19T22:09:14.486Z,585.87
2022-10-19T22:11:43.425Z,598.17
2022-10-19T22:14:13.587Z,597.60
2022-10-19T22:16:42.556Z,640.57
2022-10-19T22:19:11.112Z,638.63
2022-10-19T22:21:39.823Z,643.80
2022-10-19T22:24:12.663Z,636.90
2022-10-19T22:26:45.378Z,646.03
2022-10-19T22:29:14.707Z,661.60
2022-10-19T22:31:46.966Z,703.47
2022-10-19T22:34:17.603Z,658.67
2022-10-19T22:36:47.962Z,666.70
2022-10-19T22:39:21.121Z,688.43
2022-10-19T22:41:49.207Z,666.97
2022-10-19T22:44:17.229Z,678.20
2022-10-19T22:46:45.342Z,685.27
2022-10-19T22:49:13.526Z,675.77
2022-10-19T22:51:41.786Z,695.77
2022-10-19T22:54:09.885Z,681.07
2022-10-19T22:56:39.655Z,663.80
2022-10-19T22:59:08.316Z,678.40
2022-10-19T23:01:38.235Z,670.30
2022-10-19T23:04:06.663Z,651.33
2022-10-19T23:06:35.346Z,644.90
2022-10-19T23:09:03.665Z,649.43
2022-10-19T23:11:32.101Z,668.40
2022-10-19T23:14:01.657Z,646.33
2022-10-19T23:16:29.752Z,660.30
2022-10-19T23:18:57.889Z,682.10
2022-10-19T23:21:25.962Z,695.60
2022-10-19T23:23:54.676Z,697.47
2022-10-19T23:26:22.944Z,677.43
2022-10-19T23:28:51.352Z,699.27
2022-10-19T23:31:24.251Z,679.40
2022-10-19T23:33:52.750Z,695.73
2022-10-19T23:36:25.632Z,677.63
2022-10-19T23:38:55.609Z,702.80
2022-10-19T23:41:24.156Z,682.77
2022-10-19T23:43:52.694Z,715.43
2022-10-19T23:46:22.137Z,694.43
2022-10-19T23:48:52.132Z,727.73
2022-10-19T23:51:21.502Z,697.87
2022-10-19T23:53:53.246Z,689.07
2022-10-19T23:56:24.127Z,702.37
2022-10-19T23:58:53.308Z,711.07
